createdAt,value
2017-09-30T00:01:21.573Z,101234.15
2017-09-30T00:03:49.884Z,101233.73
2017-09-30T00:06:18.210Z,101228.91
2017-09-30T00:08:47.284Z,101226.94
2017-09-30T00:11:15.613Z,101224.69
2017-09-30T00:13:43.923Z,101226.91
2017-09-30T00:16:12.361Z,101226.44
2017-09-30T00:18:40.667Z,101226.52
2017-09-30T00:21:09.005Z,101225.56
2017-09-30T00:23:38.082Z,101228.30
2017-09-30T00:26:07.169Z,101222.67
2017-09-30T00:28:35.490Z,101219.58
2017-09-30T00:31:03.828Z,101222.64
2017-09-30T00:33:32.141Z,101215.33
2017-09-30T00:36:00.641Z,101218.47
2017-09-30T00:38:28.980Z,101218.72
2017-09-30T00:40:58.066Z,101223.58
2017-09-30T00:43:27.170Z,101230.53
2017-09-30T00:45:56.264Z,101231.86
2017-09-30T00:48:25.360Z,101226.97
2017-09-30T00:50:54.445Z,101229.84
2017-09-30T00:53:22.790Z,101226.87
2017-09-30T00:55:51.113Z,101220.94
2017-09-30T00:58:20.207Z,101219.38
2017-09-30T01:00:49.301Z,101215.70
2017-09-30T01:03:18.385Z,101207.77
2017-09-30T01:05:47.493Z,101205.33
2017-09-30T01:08:16.574Z,101199.52
2017-09-30T01:10:45.682Z,101200.27
2017-09-30T01:13:14.781Z,101203.95
2017-09-30T01:15:43.903Z,101201.45
2017-09-30T01:18:12.218Z,101198.63
2017-09-30T01:20:40.528Z,101195.84
2017-09-30T01:23:09.625Z,101201.02
2017-09-30T01:25:38.701Z,101187.36
2017-09-30T01:28:07.027Z,101186.92
2017-09-30T01:30:35.338Z,101181.05
2017-09-30T01:33:04.431Z,101181.84
2017-09-30T01:35:32.741Z,101182.20
2017-09-30T01:38:01.869Z,101184.98
2017-09-30T01:40:30.202Z,101184.46
2017-09-30T01:42:58.525Z,101190.40
2017-09-30T01:45:26.848Z,101185.77
2017-09-30T01:50:28.644Z,101189.71
2017-09-30T01:52:57.724Z,101180.29
2017-09-30T01:55:26.060Z,101180.58
2017-09-30T01:57:54.372Z,101175.00
2017-09-30T02:00:22.690Z,101179.41
2017-09-30T02:02:51.766Z,101181.33
2017-09-30T02:05:20.110Z,101176.83
2017-09-30T02:07:48.424Z,101173.14
2017-09-30T02:10:17.516Z,101173.69
2017-09-30T02:12:46.610Z,101171.88
2017-09-30T02:15:14.945Z,101177.17
2017-09-30T02:17:44.049Z,101172.52
2017-09-30T02:20:12.361Z,101165.48
2017-09-30T02:22:40.761Z,101171.22
2017-09-30T02:25:09.071Z,101167.95
2017-09-30T02:27:37.432Z,101166.02
2017-09-30T02:30:05.738Z,101157.83
2017-09-30T02:32:34.048Z,101153.33
2017-09-30T02:35:02.386Z,101156.41
2017-09-30T02:37:30.701Z,101155.20
2017-09-30T02:39:59.048Z,101152.41
2017-09-30T02:42:27.375Z,101149.80
2017-09-30T02:44:56.478Z,101153.61
2017-09-30T02:47:24.786Z,101150.28
2017-09-30T02:49:53.127Z,101140.67
2017-09-30T02:52:22.213Z,101148.38
2017-09-30T02:54:50.550Z,101143.05
2017-09-30T02:57:18.882Z,101134.74
2017-09-30T02:59:47.235Z,101134.52
2017-09-30T03:02:15.559Z,101130.14
2017-09-30T03:04:43.876Z,101122.85
2017-09-30T03:07:12.218Z,101129.89
2017-09-30T03:09:40.531Z,101135.19
2017-09-30T03:12:08.862Z,101127.04
2017-09-30T03:14:37.181Z,101123.87
2017-09-30T03:17:07.018Z,101126.41
2017-09-30T03:19:35.330Z,101129.61
2017-09-30T03:22:03.651Z,101132.28
2017-09-30T03:24:31.978Z,101130.76
2017-09-30T03:27:00.338Z,101123.47
2017-09-30T03:29:29.427Z,101121.56
2017-09-30T03:31:58.507Z,101118.84
2017-09-30T03:34:26.830Z,101113.09
2017-09-30T03:36:55.146Z,101114.62
2017-09-30T03:39:23.479Z,101110.38
2017-09-30T03:41:51.806Z,101108.34
2017-09-30T03:44:20.133Z,101103.97
2017-09-30T03:46:48.472Z,101106.56
2017-09-30T03:49:16.793Z,101096.08
2017-09-30T03:51:45.110Z,101096.87
2017-09-30T03:54:13.447Z,101098.33
2017-09-30T03:56:41.786Z,101101.30
2017-09-30T03:59:10.104Z,101094.43
2017-09-30T04:01:38.434Z,101093.31
2017-09-30T04:04:06.745Z,101092.65
2017-09-30T04:06:35.841Z,101085.71
2017-09-30T04:09:04.933Z,101086.84
2017-09-30T04:11:34.030Z,101087.86
2017-09-30T04:14:03.123Z,101089.16
2017-09-30T04:16:32.206Z,101086.50
2017-09-30T04:19:01.282Z,101090.20
2017-09-30T04:21:29.634Z,101091.16
2017-09-30T04:23:57.959Z,101078.55
2017-09-30T04:26:27.082Z,101078.39
2017-09-30T04:28:55.410Z,101078.67
2017-09-30T04:31:23.729Z,101074.23
2017-09-30T04:33:52.070Z,101082.89
2017-09-30T04:36:20.386Z,101088.63
2017-09-30T04:38:48.746Z,101091.89
2017-09-30T04:41:17.842Z,101089.45
2017-09-30T04:43:46.943Z,101093.00
2017-09-30T04:46:16.033Z,101091.42
2017-09-30T04:48:45.127Z,101100.58
2017-09-30T04:51:13.429Z,101091.70
2017-09-30T04:53:41.773Z,101095.03
2017-09-30T04:56:10.100Z,101096.33
2017-09-30T04:58:38.409Z,101089.73
2017-09-30T05:01:06.736Z,101091.06
2017-09-30T05:03:35.062Z,101096.27
2017-09-30T05:06:03.393Z,101093.19
2017-09-30T05:08:31.723Z,101096.80
2017-09-30T05:11:00.042Z,101100.29
2017-09-30T05:13:28.373Z,101097.28
2017-09-30T05:15:56.732Z,101097.22
2017-09-30T05:18:25.041Z,101089.04
2017-09-30T05:20:53.358Z,101093.41
2017-09-30T05:23:21.681Z,101099.12
2017-09-30T05:25:50.002Z,101101.84
2017-09-30T05:28:18.334Z,101104.98
2017-09-30T05:30:46.670Z,101106.92
2017-09-30T05:33:15.010Z,101105.94
2017-09-30T05:35:43.336Z,101103.97
2017-09-30T05:38:11.661Z,101103.20
2017-09-30T05:40:39.979Z,101098.80
2017-09-30T05:43:08.342Z,101098.39
2017-09-30T05:45:36.674Z,101106.85
2017-09-30T05:48:04.990Z,101105.02
2017-09-30T05:50:34.085Z,101104.13
2017-09-30T05:53:03.174Z,101106.23
2017-09-30T05:55:31.490Z,101105.74
2017-09-30T05:57:59.805Z,101098.17
2017-09-30T06:00:28.130Z,101091.06
2017-09-30T06:02:56.460Z,101096.96
2017-09-30T06:05:24.785Z,101093.70
2017-09-30T06:07:53.114Z,101084.19
2017-09-30T06:10:21.527Z,101081.05
2017-09-30T06:12:50.630Z,101092.02
2017-09-30T06:15:19.746Z,101105.28
2017-09-30T06:17:48.064Z,101104.37
2017-09-30T06:20:16.382Z,101109.94
2017-09-30T06:22:45.470Z,101107.27
2017-09-30T06:25:13.855Z,101098.39
2017-09-30T06:27:42.929Z,101099.50
2017-09-30T06:30:11.245Z,101101.55
2017-09-30T06:32:39.562Z,101103.52
2017-09-30T06:35:07.874Z,101101.36
2017-09-30T06:37:36.960Z,101106.38
2017-09-30T06:40:05.270Z,101094.21
2017-09-30T06:42:33.590Z,101088.64
2017-09-30T06:45:01.899Z,101093.73
2017-09-30T06:47:31.008Z,101083.98
2017-09-30T06:49:59.327Z,101079.39
2017-09-30T06:52:27.641Z,101073.79
2017-09-30T06:54:55.967Z,101067.37
2017-09-30T06:57:24.286Z,101069.89
2017-09-30T06:59:52.654Z,101068.53
2017-09-30T07:02:20.974Z,101066.80
2017-09-30T07:04:50.062Z,101073.64
2017-09-30T07:07:19.174Z,101075.17
2017-09-30T07:09:47.509Z,101072.59
2017-09-30T07:12:15.820Z,101075.92
2017-09-30T07:14:44.154Z,101068.20
2017-09-30T07:17:12.481Z,101070.49
2017-09-30T07:19:40.790Z,101067.82
2017-09-30T07:22:09.108Z,101069.98
2017-09-30T07:24:37.426Z,101066.12
2017-09-30T07:27:07.273Z,101069.72
2017-09-30T07:29:35.577Z,101074.72
2017-09-30T07:32:03.930Z,101077.05
2017-09-30T07:34:32.254Z,101077.23
2017-09-30T07:37:01.324Z,101082.13
2017-09-30T07:39:29.658Z,101081.98
2017-09-30T07:41:57.978Z,101076.74
2017-09-30T07:44:26.300Z,101078.30
2017-09-30T07:46:54.613Z,101081.72
2017-09-30T07:49:22.965Z,101085.50
2017-09-30T07:51:51.302Z,101079.94
2017-09-30T07:54:20.410Z,101082.34
2017-09-30T07:56:49.477Z,101077.39
2017-09-30T07:59:17.801Z,101080.40
2017-09-30T08:01:46.126Z,101079.20
2017-09-30T08:04:14.430Z,101073.73
2017-09-30T08:06:43.515Z,101074.88
2017-09-30T08:09:12.630Z,101071.95
2017-09-30T08:11:41.718Z,101073.73
2017-09-30T08:14:10.810Z,101067.93
2017-09-30T08:16:39.921Z,101073.72
2017-09-30T08:19:08.231Z,101075.23
2017-09-30T08:21:36.549Z,101071.79
2017-09-30T08:24:05.640Z,101069.57
2017-09-30T08:26:33.965Z,101064.49
2017-09-30T08:29:02.310Z,101060.59
2017-09-30T08:31:31.384Z,101056.98
2017-09-30T08:33:59.705Z,101052.20
2017-09-30T08:36:28.015Z,101052.09
2017-09-30T08:38:56.358Z,101045.40
2017-09-30T08:41:24.671Z,101045.08
2017-09-30T08:43:52.996Z,101049.81
2017-09-30T08:46:21.423Z,101048.90
2017-09-30T08:48:49.800Z,101058.44
2017-09-30T08:51:18.167Z,101051.59
2017-09-30T08:53:46.579Z,101049.82
2017-09-30T08:56:14.942Z,101046.84
2017-09-30T08:58:43.315Z,101043.01
2017-09-30T09:01:11.674Z,101045.02
2017-09-30T09:03:39.995Z,101049.23
2017-09-30T09:06:08.389Z,101047.73
2017-09-30T09:08:37.506Z,101049.34
2017-09-30T09:11:05.884Z,101037.70
2017-09-30T09:13:35.275Z,101040.59
2017-09-30T09:16:03.622Z,101023.27
2017-09-30T09:18:31.968Z,101026.36
2017-09-30T09:21:00.302Z,101024.47
2017-09-30T09:23:28.666Z,101021.30
2017-09-30T09:26:01.474Z,101019.55
2017-09-30T09:28:29.830Z,101021.91
2017-09-30T09:30:58.160Z,101012.34
2017-09-30T09:33:26.485Z,101013.77
2017-09-30T09:35:54.810Z,101010.00
2017-09-30T09:38:23.140Z,101002.77
2017-09-30T09:40:51.513Z,100998.97
2017-09-30T09:43:19.850Z,100993.99
2017-09-30T09:45:48.331Z,100994.16
2017-09-30T09:48:16.771Z,100998.97
2017-09-30T09:50:45.926Z,100985.84
2017-09-30T09:53:14.246Z,100985.10
2017-09-30T09:55:43.329Z,100986.00
2017-09-30T09:58:11.658Z,100985.77
2017-09-30T10:00:40.032Z,100972.61
2017-09-30T10:03:08.342Z,100976.32
2017-09-30T10:05:36.680Z,100974.37
2017-09-30T10:08:05.001Z,100966.84
2017-09-30T10:10:33.322Z,100964.05
2017-09-30T10:13:02.409Z,100966.87
2017-09-30T10:15:31.490Z,100964.55
2017-09-30T10:17:59.819Z,100962.08
2017-09-30T10:20:28.128Z,100950.79
2017-09-30T10:22:56.479Z,100947.73
2017-09-30T10:25:24.798Z,100942.88
2017-09-30T10:27:53.102Z,100940.00
2017-09-30T10:30:21.432Z,100935.11
2017-09-30T10:32:49.767Z,100931.72
2017-09-30T10:35:18.099Z,100928.36
2017-09-30T10:37:46.431Z,100931.02
2017-09-30T10:40:14.751Z,100921.34
2017-09-30T10:42:43.080Z,100927.59
2017-09-30T10:45:11.492Z,100924.67
2017-09-30T10:47:39.817Z,100919.02
2017-09-30T10:50:08.926Z,100924.36
2017-09-30T10:52:37.271Z,100921.81
2017-09-30T10:55:05.581Z,100916.78
2017-09-30T10:57:33.908Z,100911.34
2017-09-30T11:00:02.228Z,100903.81
2017-09-30T11:02:30.564Z,100903.20
2017-09-30T11:04:58.903Z,100896.94
2017-09-30T11:07:27.221Z,100900.14
2017-09-30T11:09:55.542Z,100897.22
2017-09-30T11:12:23.890Z,100903.31
2017-09-30T11:14:52.197Z,100888.89
2017-09-30T11:17:21.282Z,100889.97
2017-09-30T11:19:50.385Z,100893.08
2017-09-30T11:22:19.468Z,100887.86
2017-09-30T11:24:48.545Z,100887.80
2017-09-30T11:27:16.860Z,100882.47
2017-09-30T11:29:45.178Z,100878.15
2017-09-30T11:32:13.503Z,100883.73
2017-09-30T11:34:42.623Z,100878.98
2017-09-30T11:37:10.932Z,100883.80
2017-09-30T11:39:39.249Z,100879.58
2017-09-30T11:42:08.345Z,100881.91
2017-09-30T11:44:37.426Z,100877.58
2017-09-30T11:47:07.251Z,100866.58
2017-09-30T11:49:36.341Z,100865.30
2017-09-30T11:52:04.662Z,100870.61
2017-09-30T11:54:32.969Z,100859.78
2017-09-30T11:57:01.298Z,100866.31
2017-09-30T11:59:29.611Z,100868.11
2017-09-30T12:01:57.957Z,100866.98
2017-09-30T12:04:26.271Z,100868.61
2017-09-30T12:06:54.729Z,100865.19
2017-09-30T12:09:23.050Z,100865.24
2017-09-30T12:11:51.373Z,100865.22
2017-09-30T12:14:19.698Z,100857.67
2017-09-30T12:16:48.007Z,100858.95
2017-09-30T12:19:17.089Z,100859.73
2017-09-30T12:21:46.173Z,100850.76
2017-09-30T12:24:14.521Z,100853.84
2017-09-30T12:26:42.836Z,100850.97
2017-09-30T12:29:11.145Z,100848.19
2017-09-30T12:31:39.474Z,100847.73
2017-09-30T12:34:07.782Z,100845.36
2017-09-30T12:36:36.866Z,100844.38
2017-09-30T12:39:05.179Z,100845.52
2017-09-30T12:41:33.505Z,100843.10
2017-09-30T12:44:01.847Z,100840.72
2017-09-30T12:46:30.220Z,100829.92
2017-09-30T12:48:58.530Z,100819.23
2017-09-30T12:51:26.840Z,100826.17
2017-09-30T12:53:55.946Z,100830.66
2017-09-30T12:56:25.029Z,100830.84
2017-09-30T12:58:54.113Z,100827.61
2017-09-30T13:01:22.429Z,100830.62
2017-09-30T13:03:50.755Z,100831.82
2017-09-30T13:06:19.077Z,100833.35
2017-09-30T13:08:47.442Z,100838.00
2017-09-30T13:11:16.671Z,100831.61
2017-09-30T13:13:44.982Z,100833.73
2017-09-30T13:16:13.306Z,100836.11
2017-09-30T13:18:41.606Z,100833.15
2017-09-30T13:21:09.927Z,100825.91
2017-09-30T13:23:38.254Z,100825.64
2017-09-30T13:26:06.578Z,100823.30
2017-09-30T13:31:32.650Z,100827.13
2017-09-30T13:34:01.718Z,100826.16
2017-09-30T13:36:30.030Z,100827.08
2017-09-30T13:38:59.111Z,100830.24
2017-09-30T13:41:28.196Z,100826.95
2017-09-30T13:43:56.555Z,100831.43
2017-09-30T13:49:00.174Z,100827.45
2017-09-30T13:51:28.526Z,100824.56
2017-09-30T13:53:56.838Z,100823.27
2017-09-30T13:56:25.141Z,100823.16
2017-09-30T13:58:54.233Z,100820.84
2017-09-30T14:01:23.301Z,100818.97
2017-09-30T14:03:51.910Z,100820.13
2017-09-30T14:06:20.976Z,100818.74
2017-09-30T14:08:49.305Z,100817.06
2017-09-30T14:11:17.617Z,100815.11
2017-09-30T14:13:46.834Z,100813.48
2017-09-30T14:16:15.141Z,100812.87
2017-09-30T14:18:44.257Z,100811.98
2017-09-30T14:21:12.581Z,100804.70
2017-09-30T14:23:40.922Z,100806.45
2017-09-30T14:26:09.597Z,100795.12
2017-09-30T14:28:37.905Z,100792.00
2017-09-30T14:31:06.227Z,100796.67
2017-09-30T14:33:35.292Z,100788.05
2017-09-30T14:36:03.618Z,100790.05
2017-09-30T14:38:31.925Z,100784.86
2017-09-30T14:41:00.277Z,100782.95
2017-09-30T14:43:28.586Z,100774.56
2017-09-30T14:45:56.894Z,100771.53
2017-09-30T14:48:25.305Z,100774.39
2017-09-30T14:50:53.619Z,100776.75
2017-09-30T14:53:21.946Z,100769.78
2017-09-30T14:55:51.031Z,100766.66
2017-09-30T14:58:19.359Z,100766.11
2017-09-30T15:00:47.681Z,100752.06
2017-09-30T15:03:15.994Z,100753.77
2017-09-30T15:05:44.297Z,100752.77
2017-09-30T15:08:12.616Z,100758.42
2017-09-30T15:10:40.941Z,100758.02
2017-09-30T15:13:09.263Z,100765.65
2017-09-30T15:15:37.585Z,100765.43
2017-09-30T15:18:05.926Z,100764.13
2017-09-30T15:20:34.264Z,100759.23
2017-09-30T15:23:02.568Z,100765.61
2017-09-30T15:25:30.897Z,100763.61
2017-09-30T15:27:59.227Z,100761.39
2017-09-30T15:30:27.559Z,100756.37
2017-09-30T15:32:55.878Z,100755.79
2017-09-30T15:35:24.199Z,100755.59
2017-09-30T15:37:52.507Z,100756.52
2017-09-30T15:40:20.850Z,100750.60
2017-09-30T15:42:49.162Z,100744.33
2017-09-30T15:45:17.475Z,100740.03
2017-09-30T15:47:45.793Z,100737.61
2017-09-30T15:50:14.105Z,100736.77
2017-09-30T15:52:43.197Z,100737.33
2017-09-30T15:55:11.520Z,100740.95
2017-09-30T15:57:40.606Z,100735.09
2017-09-30T16:00:09.898Z,100734.81
2017-09-30T16:02:38.990Z,100733.22
2017-09-30T16:05:07.330Z,100728.87
2017-09-30T16:07:35.661Z,100726.61
2017-09-30T16:10:03.982Z,100730.66
2017-09-30T16:12:32.342Z,100729.95
2017-09-30T16:15:00.673Z,100723.59
2017-09-30T16:17:28.985Z,100725.52
2017-09-30T16:19:58.058Z,100723.81
2017-09-30T16:22:27.306Z,100722.28
2017-09-30T16:24:55.626Z,100725.69
2017-09-30T16:27:23.957Z,100725.64
2017-09-30T16:29:52.267Z,100721.54
2017-09-30T16:32:20.596Z,100730.70
2017-09-30T16:34:48.988Z,100722.95
2017-09-30T16:37:17.301Z,100726.73
2017-09-30T16:39:45.623Z,100734.02
2017-09-30T16:42:14.710Z,100731.84
2017-09-30T16:44:43.814Z,100726.52
2017-09-30T16:47:12.895Z,100732.60
2017-09-30T16:49:41.969Z,100733.33
2017-09-30T16:52:10.294Z,100728.71
2017-09-30T16:54:38.612Z,100727.20
2017-09-30T16:57:07.142Z,100718.06
2017-09-30T16:59:36.242Z,100724.50
2017-09-30T17:02:04.570Z,100723.94
2017-09-30T17:04:32.870Z,100725.59
2017-09-30T17:07:01.191Z,100724.75
2017-09-30T17:09:29.502Z,100722.27
2017-09-30T17:11:57.874Z,100728.72
2017-09-30T17:14:26.181Z,100732.59
2017-09-30T17:16:54.493Z,100735.75
2017-09-30T17:19:22.850Z,100732.75
2017-09-30T17:21:51.936Z,100738.67
2017-09-30T17:24:25.978Z,100741.58
2017-09-30T17:26:54.312Z,100733.18
2017-09-30T17:29:22.621Z,100735.12
2017-09-30T17:31:50.930Z,100733.89
2017-09-30T17:34:19.250Z,100738.13
2017-09-30T17:36:47.562Z,100737.06
2017-09-30T17:39:15.888Z,100746.84
2017-09-30T17:41:44.198Z,100743.13
2017-09-30T17:44:13.319Z,100749.17
2017-09-30T17:46:41.630Z,100747.91
2017-09-30T17:49:09.947Z,100750.80
2017-09-30T17:51:39.036Z,100752.47
2017-09-30T17:54:08.110Z,100747.91
2017-09-30T17:56:36.434Z,100756.56
2017-09-30T17:59:04.743Z,100752.27
2017-09-30T18:01:33.059Z,100751.34
2017-09-30T18:04:02.138Z,100747.38
2017-09-30T18:06:30.463Z,100743.94
2017-09-30T18:08:58.778Z,100742.70
2017-09-30T18:11:27.089Z,100742.80
2017-09-30T18:13:56.183Z,100744.34
2017-09-30T18:16:25.262Z,100740.47
2017-09-30T18:18:53.595Z,100740.88
2017-09-30T18:21:21.931Z,100748.87
2017-09-30T18:23:51.024Z,100746.84
2017-09-30T18:26:19.334Z,100744.39
2017-09-30T18:28:47.669Z,100746.03
2017-09-30T18:31:16.818Z,100746.04
2017-09-30T18:33:45.133Z,100744.00
2017-09-30T18:36:13.458Z,100741.55
2017-09-30T18:38:41.767Z,100738.51
2017-09-30T18:41:10.114Z,100744.45
2017-09-30T18:43:38.421Z,100734.58
2017-09-30T18:46:06.750Z,100733.73
2017-09-30T18:48:35.848Z,100735.41
2017-09-30T18:51:04.172Z,100741.05
2017-09-30T18:53:32.515Z,100742.57
2017-09-30T18:56:00.827Z,100737.74
2017-09-30T18:58:29.182Z,100745.69
2017-09-30T19:00:57.504Z,100748.89
2017-09-30T19:03:25.829Z,100747.66
2017-09-30T19:05:54.150Z,100749.68
2017-09-30T19:08:22.479Z,100748.48
2017-09-30T19:10:50.794Z,100749.70
2017-09-30T19:13:19.117Z,100744.63
2017-09-30T19:15:48.212Z,100743.80
2017-09-30T19:18:17.327Z,100749.15
2017-09-30T19:20:45.649Z,100746.14
2017-09-30T19:23:13.957Z,100751.77
2017-09-30T19:25:42.285Z,100752.91
2017-09-30T19:28:10.608Z,100751.24
2017-09-30T19:30:38.944Z,100742.48
2017-09-30T19:33:07.254Z,100751.39
2017-09-30T19:35:35.567Z,100752.20
2017-09-30T19:38:04.662Z,100753.17
2017-09-30T19:40:32.993Z,100760.19
2017-09-30T19:43:01.352Z,100766.65
2017-09-30T19:45:29.658Z,100771.44
2017-09-30T19:47:58.002Z,100769.25
2017-09-30T19:50:26.312Z,100769.66
2017-09-30T19:52:54.633Z,100770.21
2017-09-30T19:55:22.946Z,100771.47
2017-09-30T19:57:51.265Z,100774.07
2017-09-30T20:00:19.617Z,100767.35
2017-09-30T20:02:47.939Z,100764.34
2017-09-30T20:05:17.078Z,100765.72
2017-09-30T20:07:45.390Z,100771.05
2017-09-30T20:10:13.705Z,100778.33
2017-09-30T20:12:42.020Z,100777.40
2017-09-30T20:15:10.358Z,100780.97
2017-09-30T20:17:39.523Z,100786.31
2017-09-30T20:20:08.642Z,100793.05
2017-09-30T20:22:36.962Z,100809.64
2017-09-30T20:25:06.042Z,100825.31
2017-09-30T20:27:34.364Z,100833.83
2017-09-30T20:30:02.668Z,100829.97
2017-09-30T20:32:31.006Z,100826.97
2017-09-30T20:34:59.309Z,100833.81
2017-09-30T20:37:28.400Z,100831.05
2017-09-30T20:39:57.473Z,100830.09
2017-09-30T20:42:25.798Z,100828.71
2017-09-30T20:44:54.106Z,100831.20
2017-09-30T20:47:22.435Z,100835.59
2017-09-30T20:49:51.509Z,100846.34
2017-09-30T20:52:19.870Z,100853.53
2017-09-30T20:54:48.181Z,100859.72
2017-09-30T20:57:17.259Z,100867.73
2017-09-30T20:59:45.582Z,100874.44
2017-09-30T21:02:13.905Z,100888.10
2017-09-30T21:04:42.227Z,100878.73
2017-09-30T21:07:10.551Z,100894.31
2017-09-30T21:09:38.881Z,100888.19
2017-09-30T21:12:07.949Z,100888.87
2017-09-30T21:14:36.269Z,100892.31
2017-09-30T21:17:04.582Z,100887.61
2017-09-30T21:19:32.904Z,100897.92
2017-09-30T21:22:01.226Z,100890.81
2017-09-30T21:24:29.541Z,100885.64
2017-09-30T21:26:58.618Z,100893.55
2017-09-30T21:29:26.942Z,100892.97
2017-09-30T21:31:55.249Z,100885.26
2017-09-30T21:34:23.558Z,100892.75
2017-09-30T21:36:51.874Z,100900.75
2017-09-30T21:39:20.217Z,100896.53
2017-09-30T21:41:49.297Z,100900.37
2017-09-30T21:44:17.597Z,100894.20
2017-09-30T21:46:46.683Z,100890.73
2017-09-30T21:49:14.981Z,100895.22
2017-09-30T21:51:43.300Z,100898.11
2017-09-30T21:54:11.602Z,100897.70
2017-09-30T21:56:39.915Z,100892.23
2017-09-30T21:59:08.226Z,100895.11
2017-09-30T22:01:36.541Z,100904.69
2017-09-30T22:04:04.842Z,100906.44
2017-09-30T22:06:33.161Z,100906.39
2017-09-30T22:09:01.458Z,100904.45
2017-09-30T22:11:29.801Z,100896.25
2017-09-30T22:13:58.108Z,100908.59
2017-09-30T22:16:26.418Z,100917.03
2017-09-30T22:18:55.502Z,100928.32
2017-09-30T22:21:23.807Z,100925.96
2017-09-30T22:23:52.125Z,100927.91
2017-09-30T22:26:20.433Z,100920.28
2017-09-30T22:28:49.522Z,100919.26
2017-09-30T22:31:17.833Z,100920.73
2017-09-30T22:33:46.151Z,100923.47
2017-09-30T22:36:14.453Z,100929.16
2017-09-30T22:38:42.765Z,100925.42
2017-09-30T22:41:11.071Z,100926.68
2017-09-30T22:43:39.445Z,100934.72
2017-09-30T22:46:07.747Z,100938.22
2017-09-30T22:48:36.045Z,100942.84
2017-09-30T22:51:04.352Z,100934.75
2017-09-30T22:53:32.659Z,100943.35
2017-09-30T22:56:00.979Z,100947.38
2017-09-30T22:58:29.300Z,100944.48
2017-09-30T23:00:58.429Z,100939.02
2017-09-30T23:03:26.734Z,100941.52
2017-09-30T23:05:55.851Z,100949.00
2017-09-30T23:08:24.168Z,100940.85
2017-09-30T23:10:52.466Z,100948.67
2017-09-30T23:13:20.778Z,100951.30
2017-09-30T23:15:49.098Z,100955.14
2017-09-30T23:18:17.431Z,100952.48
2017-09-30T23:20:46.489Z,100954.53
2017-09-30T23:23:14.803Z,100954.52
2017-09-30T23:25:43.867Z,100959.91
2017-09-30T23:28:12.193Z,100952.36
2017-09-30T23:30:40.507Z,100955.68
2017-09-30T23:33:08.849Z,100950.70
2017-09-30T23:35:37.148Z,100965.00
2017-09-30T23:38:05.496Z,100967.84
2017-09-30T23:40:33.799Z,100966.14
2017-09-30T23:43:02.109Z,100972.91
2017-09-30T23:45:30.420Z,100973.28
2017-09-30T23:47:59.494Z,100977.30
2017-09-30T23:50:27.804Z,100970.64
2017-09-30T23:52:56.099Z,100974.62
2017-09-30T23:55:24.422Z,100979.56
2017-09-30T23:57:52.728Z,100987.52
